createdAt,value
2022-08-08T00:01:08.381Z,15.90
2022-08-08T00:03:48.222Z,15.80
2022-08-08T00:06:36.425Z,15.80
2022-08-08T00:09:15.797Z,15.70
2022-08-08T00:12:07.192Z,15.60
2022-08-08T00:14:47.996Z,15.60
2022-08-08T00:17:35.421Z,15.50
2022-08-08T00:20:30.984Z,15.50
2022-08-08T00:23:02.329Z,15.50
2022-08-08T00:25:46.492Z,15.50
2022-08-08T00:28:34.995Z,15.50
2022-08-08T00:32:28.276Z,15.50
2022-08-08T00:34:47.294Z,15.40
2022-08-08T00:37:47.601Z,15.50
2022-08-08T00:41:11.468Z,15.40
2022-08-08T00:43:56.308Z,15.40
2022-08-08T00:46:58.324Z,15.40
2022-08-08T00:49:59.005Z,15.40
2022-08-08T00:52:48.650Z,15.40
2022-08-08T00:55:54.789Z,15.30
2022-08-08T00:59:44.552Z,15.20
2022-08-08T01:04:00.837Z,15.20
2022-08-08T01:06:31.944Z,15.20
2022-08-08T01:09:41.313Z,15.10
2022-08-08T01:12:59.138Z,15.00
2022-08-08T01:16:00.428Z,15.00
2022-08-08T01:19:41.814Z,14.90
2022-08-08T01:22:44.799Z,14.80
2022-08-08T01:25:56.295Z,14.70
2022-08-08T01:28:48.383Z,14.60
2022-08-08T01:32:15.986Z,14.60
2022-08-08T01:35:01.002Z,14.50
2022-08-08T01:38:11.506Z,14.50
2022-08-08T01:41:06.332Z,14.50
2022-08-08T01:43:50.614Z,14.40
2022-08-08T01:46:41.280Z,14.50
2022-08-08T01:49:22.914Z,14.50
2022-08-08T01:55:14.687Z,14.40
2022-08-08T01:56:27.134Z,14.40
2022-08-08T01:58:38.830Z,14.40
2022-08-08T02:01:54.744Z,14.40
2022-08-08T02:04:29.713Z,14.40
2022-08-08T02:07:04.498Z,14.40
2022-08-08T02:10:03.136Z,14.30
2022-08-08T02:12:51.250Z,14.40
2022-08-08T02:15:31.307Z,14.30
2022-08-08T02:18:15.152Z,14.20
2022-08-08T02:21:13.214Z,14.20
2022-08-08T02:23:47.590Z,14.20
2022-08-08T02:26:25.337Z,14.10
2022-08-08T02:29:21.480Z,14.00
2022-08-08T02:32:26.337Z,13.90
2022-08-08T02:35:15.174Z,13.90
2022-08-08T02:38:25.410Z,13.80
2022-08-08T02:41:58.027Z,13.70
2022-08-08T02:44:42.530Z,13.70
2022-08-08T02:47:40.755Z,13.60
2022-08-08T02:51:01.403Z,13.60
2022-08-08T02:53:58.183Z,13.60
2022-08-08T02:56:57.094Z,13.60
2022-08-08T03:00:31.736Z,13.50
2022-08-08T03:05:01.136Z,13.50
2022-08-08T03:07:10.033Z,13.50
2022-08-08T03:10:31.584Z,13.50
2022-08-08T03:15:54.591Z,13.50
2022-08-08T03:16:39.951Z,13.40
2022-08-08T03:19:51.205Z,13.40
2022-08-08T03:22:38.121Z,13.40
2022-08-08T03:25:18.185Z,13.40
2022-08-08T03:27:56.672Z,13.50
2022-08-08T03:30:28.119Z,13.50
2022-08-08T03:33:54.880Z,13.50
2022-08-08T03:36:04.919Z,13.40
2022-08-08T03:38:58.299Z,13.40
2022-08-08T03:42:27.291Z,13.40
2022-08-08T03:44:31.370Z,13.30
2022-08-08T03:47:19.191Z,13.30
2022-08-08T03:50:00.768Z,13.30
2022-08-08T03:52:45.191Z,13.20
2022-08-08T03:55:20.022Z,13.20
2022-08-08T03:58:36.269Z,13.20
2022-08-08T04:01:24.033Z,13.20
2022-08-08T04:03:59.817Z,13.20
2022-08-08T04:06:36.425Z,13.30
2022-08-08T04:09:11.183Z,13.30
2022-08-08T04:11:57.762Z,13.30
2022-08-08T04:14:45.311Z,13.30
2022-08-08T04:17:45.778Z,13.30
2022-08-08T04:20:04.870Z,13.30
2022-08-08T04:22:35.790Z,13.40
2022-08-08T04:25:06.567Z,14.40
2022-08-08T04:28:01.827Z,15.40
2022-08-08T04:30:27.243Z,16.20
2022-08-08T04:32:56.322Z,17.10
2022-08-08T04:35:33.368Z,17.80
2022-08-08T04:38:09.705Z,18.40
2022-08-08T04:40:53.608Z,19.00
2022-08-08T04:43:32.502Z,19.40
2022-08-08T04:46:15.724Z,19.90
2022-08-08T04:48:47.734Z,20.50
2022-08-08T04:51:23.654Z,20.50
2022-08-08T04:54:38.977Z,20.00
2022-08-08T04:56:44.431Z,19.40
2022-08-08T04:59:12.829Z,18.80
2022-08-08T05:01:48.392Z,18.40
2022-08-08T05:04:17.771Z,18.00
2022-08-08T05:06:48.087Z,17.80
2022-08-08T05:09:20.852Z,17.60
2022-08-08T05:11:56.978Z,17.40
2022-08-08T05:14:29.150Z,17.30
2022-08-08T05:17:01.935Z,17.30
2022-08-08T05:20:12.593Z,17.30
2022-08-08T05:22:32.548Z,17.30
2022-08-08T05:25:02.181Z,17.20
2022-08-08T05:27:33.375Z,17.20
2022-08-08T05:30:03.264Z,17.20
2022-08-08T05:32:45.534Z,17.20
2022-08-08T05:35:18.881Z,17.10
2022-08-08T05:38:01.145Z,17.00
2022-08-08T05:40:38.839Z,17.00
2022-08-08T05:43:17.233Z,17.00
2022-08-08T05:46:08.445Z,17.00
2022-08-08T05:48:42.569Z,17.00
2022-08-08T05:51:15.748Z,16.90
2022-08-08T05:54:24.379Z,16.90
2022-08-08T05:56:47.549Z,16.90
2022-08-08T05:59:59.350Z,16.90
2022-08-08T06:02:40.921Z,16.80
2022-08-08T06:05:34.533Z,16.70
2022-08-08T06:08:33.037Z,16.70
2022-08-08T06:11:05.435Z,16.80
2022-08-08T06:13:47.651Z,16.90
2022-08-08T06:16:25.097Z,17.00
2022-08-08T06:19:07.281Z,17.10
2022-08-08T06:21:49.040Z,17.20
2022-08-08T06:24:31.081Z,17.20
2022-08-08T06:27:09.825Z,17.30
2022-08-08T06:30:00.117Z,17.40
2022-08-08T06:32:33.168Z,17.40
2022-08-08T06:35:30.646Z,17.50
2022-08-08T06:38:14.065Z,17.60
2022-08-08T06:40:48.348Z,17.70
2022-08-08T06:43:28.579Z,17.80
2022-08-08T06:46:09.132Z,17.90
2022-08-08T06:48:42.763Z,18.00
2022-08-08T06:51:15.735Z,18.10
2022-08-08T06:53:51.302Z,18.30
2022-08-08T06:56:32.430Z,18.40
2022-08-08T06:59:01.395Z,18.50
2022-08-08T07:02:17.389Z,18.50
2022-08-08T07:04:45.499Z,18.70
2022-08-08T07:07:32.947Z,18.70
2022-08-08T07:10:09.568Z,18.90
2022-08-08T07:12:47.528Z,19.00
2022-08-08T07:16:03.701Z,19.20
2022-08-08T07:18:46.084Z,19.30
2022-08-08T07:21:24.643Z,19.40
2022-08-08T07:24:04.403Z,19.60
2022-08-08T07:26:46.849Z,19.70
2022-08-08T07:29:58.677Z,19.90
2022-08-08T07:32:08.918Z,20.00
2022-08-08T07:34:48.373Z,20.20
2022-08-08T07:37:27.729Z,20.30
2022-08-08T07:40:21.018Z,20.30
2022-08-08T07:42:59.577Z,20.50
2022-08-08T07:45:34.536Z,20.60
2022-08-08T07:48:17.002Z,20.70
2022-08-08T07:50:47.328Z,20.90
2022-08-08T07:53:52.124Z,21.00
2022-08-08T07:56:13.229Z,21.10
2022-08-08T07:58:44.588Z,21.20
2022-08-08T08:01:27.077Z,21.40
2022-08-08T08:04:04.075Z,21.50
2022-08-08T08:06:34.833Z,21.50
2022-08-08T08:09:13.024Z,21.60
2022-08-08T08:11:52.622Z,21.80
2022-08-08T08:14:41.936Z,21.90
2022-08-08T08:17:14.002Z,22.10
2022-08-08T08:19:50.487Z,22.20
2022-08-08T08:22:30.562Z,22.30
2022-08-08T08:25:07.742Z,22.40
2022-08-08T08:27:38.380Z,22.50
2022-08-08T08:30:16.761Z,22.70
2022-08-08T08:32:49.504Z,22.90
2022-08-08T08:35:21.367Z,23.00
2022-08-08T08:38:18.006Z,22.90
2022-08-08T08:40:51.365Z,23.10
2022-08-08T08:43:26.684Z,23.00
2022-08-08T08:46:03.555Z,23.00
2022-08-08T08:48:34.258Z,23.20
2022-08-08T08:51:04.814Z,23.30
2022-08-08T08:53:55.923Z,23.50
2022-08-08T08:56:29.635Z,23.50
2022-08-08T08:59:05.252Z,23.70
2022-08-08T09:01:45.574Z,23.60
2022-08-08T09:04:31.092Z,23.80
2022-08-08T09:07:12.962Z,23.80
2022-08-08T09:09:55.242Z,23.90
2022-08-08T09:12:30.175Z,24.10
2022-08-08T09:15:00.767Z,24.20
2022-08-08T09:17:41.919Z,24.20
2022-08-08T09:22:01.801Z,24.20
2022-08-08T09:23:17.812Z,24.20
2022-08-08T09:26:03.135Z,24.20
2022-08-08T09:28:40.973Z,24.20
2022-08-08T09:31:17.675Z,24.30
2022-08-08T09:34:15.232Z,24.40
2022-08-08T09:37:28.600Z,24.50
2022-08-08T09:39:43.944Z,24.50
2022-08-08T09:42:21.847Z,24.60
2022-08-08T09:45:08.179Z,24.80
2022-08-08T09:48:09.866Z,25.10
2022-08-08T09:50:35.701Z,25.20
2022-08-08T09:53:23.890Z,25.30
2022-08-08T09:56:04.706Z,25.30
2022-08-08T09:58:50.682Z,25.30
2022-08-08T10:02:01.930Z,25.40
2022-08-08T10:04:38.315Z,25.30
2022-08-08T10:07:10.519Z,25.30
2022-08-08T10:09:58.928Z,25.40
2022-08-08T10:12:54.009Z,25.50
2022-08-08T10:15:27.745Z,25.60
2022-08-08T10:18:05.636Z,25.60
2022-08-08T10:20:51.353Z,25.60
2022-08-08T10:23:44.252Z,25.50
2022-08-08T10:26:30.253Z,25.50
2022-08-08T10:29:04.824Z,25.60
2022-08-08T10:31:52.971Z,25.70
2022-08-08T10:34:24.613Z,25.80
2022-08-08T10:36:59.693Z,25.90
2022-08-08T10:39:31.698Z,25.90
2022-08-08T10:42:16.171Z,25.80
2022-08-08T10:44:46.032Z,25.80
2022-08-08T10:47:21.174Z,25.90
2022-08-08T10:50:01.266Z,26.00
2022-08-08T10:52:32.389Z,26.20
2022-08-08T10:55:06.622Z,26.30
2022-08-08T10:57:49.670Z,26.40
2022-08-08T11:00:23.390Z,26.50
2022-08-08T11:02:54.765Z,26.60
2022-08-08T11:05:23.494Z,26.60
2022-08-08T11:08:30.624Z,26.50
2022-08-08T11:10:42.697Z,26.40
2022-08-08T11:13:29.941Z,26.20
2022-08-08T11:16:07.805Z,26.40
2022-08-08T11:18:40.150Z,26.60
2022-08-08T11:21:10.249Z,26.70
2022-08-08T11:23:42.336Z,26.80
2022-08-08T11:26:19.108Z,26.90
2022-08-08T11:28:50.652Z,26.90
2022-08-08T11:31:21.063Z,26.90
2022-08-08T11:34:03.106Z,26.90
2022-08-08T11:36:33.218Z,27.10
2022-08-08T11:39:06.206Z,26.90
2022-08-08T11:41:44.942Z,26.80
2022-08-08T11:44:15.862Z,26.60
2022-08-08T11:46:44.576Z,26.60
2022-08-08T11:49:14.798Z,26.50
2022-08-08T11:51:50.443Z,26.60
2022-08-08T11:54:33.971Z,26.60
2022-08-08T11:57:23.812Z,26.80
2022-08-08T12:00:02.816Z,27.00
2022-08-08T12:02:51.328Z,27.20
2022-08-08T12:05:22.848Z,26.90
2022-08-08T12:07:56.073Z,26.80
2022-08-08T12:10:26.697Z,26.80
2022-08-08T12:13:04.397Z,26.90
2022-08-08T12:15:42.137Z,27.20
2022-08-08T12:18:20.579Z,27.50
2022-08-08T12:20:50.614Z,27.40
2022-08-08T12:23:43.194Z,27.20
2022-08-08T12:26:28.104Z,27.20
2022-08-08T12:29:21.249Z,27.40
2022-08-08T12:32:02.865Z,27.50
2022-08-08T12:34:39.192Z,27.60
2022-08-08T12:37:12.141Z,27.70
2022-08-08T12:40:00.650Z,27.70
2022-08-08T12:42:33.192Z,27.60
2022-08-08T12:45:59.038Z,27.70
2022-08-08T12:48:10.165Z,27.60
2022-08-08T12:50:49.284Z,27.60
2022-08-08T12:53:24.687Z,27.50
2022-08-08T12:56:17.958Z,27.50
2022-08-08T12:58:48.571Z,27.60
2022-08-08T13:01:24.607Z,27.60
2022-08-08T13:04:18.827Z,27.70
2022-08-08T13:07:00.781Z,27.60
2022-08-08T13:09:57.444Z,27.60
2022-08-08T13:12:30.097Z,27.50
2022-08-08T13:15:01.054Z,27.60
2022-08-08T13:18:08.705Z,27.40
2022-08-08T13:20:24.364Z,27.20
2022-08-08T13:25:58.544Z,27.30
2022-08-08T13:28:31.789Z,27.20
2022-08-08T13:31:04.471Z,27.20
2022-08-08T13:33:42.740Z,27.40
2022-08-08T13:36:12.088Z,27.40
2022-08-08T13:38:41.290Z,27.50
2022-08-08T13:41:16.008Z,27.70
2022-08-08T13:43:46.570Z,27.60
2022-08-08T13:46:27.037Z,27.60
2022-08-08T13:49:12.225Z,27.70
2022-08-08T13:51:57.359Z,27.80
2022-08-08T13:54:31.333Z,27.90
2022-08-08T13:57:12.318Z,27.90
2022-08-08T13:59:44.447Z,27.80
2022-08-08T14:02:20.461Z,27.70
2022-08-08T14:05:04.943Z,27.70
2022-08-08T14:07:42.354Z,27.70
2022-08-08T14:10:17.496Z,27.70
2022-08-08T14:12:46.982Z,27.80
2022-08-08T14:15:31.424Z,27.90
2022-08-08T14:18:36.239Z,27.90
2022-08-08T14:21:04.555Z,28.00
2022-08-08T14:24:06.521Z,28.00
2022-08-08T14:26:33.382Z,28.00
2022-08-08T14:29:06.196Z,28.00
2022-08-08T14:32:09.006Z,28.00
2022-08-08T14:34:37.486Z,27.90
2022-08-08T14:37:08.761Z,27.90
2022-08-08T14:39:47.780Z,27.90
2022-08-08T14:42:37.213Z,27.80
2022-08-08T14:45:33.671Z,27.70
2022-08-08T14:48:16.323Z,27.70
2022-08-08T14:50:47.078Z,27.80
2022-08-08T14:53:20.180Z,27.80
2022-08-08T14:55:48.242Z,27.70
2022-08-08T14:58:30.255Z,27.50
2022-08-08T15:00:58.558Z,27.50
2022-08-08T15:03:26.714Z,27.50
2022-08-08T15:06:03.371Z,27.50
2022-08-08T15:08:38.543Z,27.60
2022-08-08T15:11:24.200Z,27.50
2022-08-08T15:14:01.819Z,27.50
2022-08-08T15:16:34.571Z,27.40
2022-08-08T15:19:04.163Z,27.40
2022-08-08T15:21:32.766Z,27.40
2022-08-08T15:24:03.213Z,27.40
2022-08-08T15:26:31.382Z,27.50
2022-08-08T15:28:59.537Z,27.60
2022-08-08T15:32:03.422Z,27.60
2022-08-08T15:34:18.770Z,27.70
2022-08-08T15:36:58.856Z,27.70
2022-08-08T15:39:31.503Z,27.60
2022-08-08T15:42:07.080Z,27.50
2022-08-08T15:44:39.181Z,27.50
2022-08-08T15:47:15.614Z,27.50
2022-08-08T15:49:48.332Z,27.30
2022-08-08T15:52:20.732Z,27.30
2022-08-08T15:54:52.326Z,27.30
2022-08-08T15:57:22.293Z,27.30
2022-08-08T16:00:18.261Z,27.30
2022-08-08T16:02:50.487Z,27.30
2022-08-08T16:05:21.391Z,27.40
2022-08-08T16:07:53.957Z,27.40
2022-08-08T16:13:03.010Z,27.40
2022-08-08T16:13:30.889Z,27.40
2022-08-08T16:16:09.665Z,27.40
2022-08-08T16:18:56.502Z,27.50
2022-08-08T16:21:29.149Z,27.50
2022-08-08T16:23:57.866Z,27.60
2022-08-08T16:26:33.743Z,27.60
2022-08-08T16:29:07.974Z,27.60
2022-08-08T16:31:42.098Z,27.60
2022-08-08T16:34:18.236Z,27.60
2022-08-08T16:36:49.338Z,27.60
2022-08-08T16:40:00.302Z,27.50
2022-08-08T16:42:18.096Z,27.60
2022-08-08T16:44:54.887Z,27.70
2022-08-08T16:47:40.431Z,27.80
2022-08-08T16:50:14.087Z,27.80
2022-08-08T16:55:02.515Z,27.90
2022-08-08T16:55:52.953Z,27.80
2022-08-08T16:58:27.042Z,27.90
2022-08-08T17:01:00.625Z,27.90
2022-08-08T17:03:58.046Z,27.80
2022-08-08T17:06:36.823Z,27.70
2022-08-08T17:09:15.054Z,27.80
2022-08-08T17:11:48.461Z,27.90
2022-08-08T17:14:33.094Z,27.90
2022-08-08T17:17:03.822Z,27.90
2022-08-08T17:19:37.374Z,28.00
2022-08-08T17:22:09.578Z,28.10
2022-08-08T17:24:40.612Z,28.10
2022-08-08T17:27:08.741Z,28.10
2022-08-08T17:29:43.788Z,28.10
2022-08-08T17:32:28.924Z,28.00
2022-08-08T17:35:54.236Z,28.00
2022-08-08T17:37:51.719Z,28.00
2022-08-08T17:40:21.677Z,28.00
2022-08-08T17:42:50.432Z,28.00
2022-08-08T17:45:23.639Z,27.90
2022-08-08T17:47:54.555Z,27.80
2022-08-08T17:50:24.655Z,27.70
2022-08-08T17:52:53.496Z,27.70
2022-08-08T17:56:04.011Z,27.70
2022-08-08T17:58:11.725Z,27.60
2022-08-08T18:00:41.803Z,27.50
2022-08-08T18:03:15.545Z,27.40
2022-08-08T18:05:49.293Z,27.40
2022-08-08T18:08:25.131Z,27.30
2022-08-08T18:11:14.914Z,27.20
2022-08-08T18:13:47.637Z,27.10
2022-08-08T18:16:20.551Z,27.00
2022-08-08T18:18:53.466Z,26.90
2022-08-08T18:21:34.446Z,26.70
2022-08-08T18:24:04.934Z,26.50
2022-08-08T18:26:35.538Z,26.30
2022-08-08T18:29:06.005Z,26.20
2022-08-08T18:31:35.825Z,26.10
2022-08-08T18:34:25.133Z,25.90
2022-08-08T18:36:55.861Z,25.80
2022-08-08T18:39:28.624Z,25.60
2022-08-08T18:42:02.850Z,25.60
2022-08-08T18:44:32.897Z,25.40
2022-08-08T18:47:07.016Z,25.40
2022-08-08T18:49:54.883Z,25.30
2022-08-08T18:52:23.619Z,25.20
2022-08-08T18:55:00.282Z,25.10
2022-08-08T18:57:41.616Z,25.10
2022-08-08T19:00:17.050Z,25.00
2022-08-08T19:02:55.811Z,25.00
2022-08-08T19:05:32.117Z,24.90
2022-08-08T19:08:24.591Z,24.90
2022-08-08T19:10:57.686Z,24.80
2022-08-08T19:13:52.494Z,24.70
2022-08-08T19:16:19.223Z,24.60
2022-08-08T19:19:00.483Z,24.50
2022-08-08T19:21:32.832Z,24.40
2022-08-08T19:24:08.577Z,24.40
2022-08-08T19:26:52.993Z,24.30
2022-08-08T19:29:23.788Z,24.20
2022-08-08T19:31:52.164Z,24.10
2022-08-08T19:34:36.168Z,24.00
2022-08-08T19:37:15.970Z,24.00
2022-08-08T19:39:45.555Z,23.80
2022-08-08T19:42:14.254Z,23.70
2022-08-08T19:44:45.917Z,23.50
2022-08-08T19:47:23.319Z,23.30
2022-08-08T19:49:59.642Z,23.00
2022-08-08T19:52:35.247Z,22.80
2022-08-08T19:55:09.402Z,22.70
2022-08-08T19:57:40.637Z,22.50
2022-08-08T20:00:11.359Z,22.40
2022-08-08T20:02:57.778Z,22.30
2022-08-08T20:06:14.153Z,22.30
2022-08-08T20:08:37.485Z,22.20
2022-08-08T20:11:05.122Z,22.30
2022-08-08T20:14:31.582Z,22.20
2022-08-08T20:16:21.968Z,22.10
2022-08-08T20:18:57.791Z,22.00
2022-08-08T20:21:27.585Z,22.00
2022-08-08T20:24:00.177Z,22.00
2022-08-08T20:26:30.080Z,22.10
2022-08-08T20:29:03.967Z,22.20
2022-08-08T20:32:08.177Z,22.30
2022-08-08T20:34:29.437Z,22.30
2022-08-08T20:37:02.605Z,22.30
2022-08-08T20:39:39.138Z,22.20
2022-08-08T20:42:10.001Z,22.20
2022-08-08T20:44:38.101Z,22.10
2022-08-08T20:47:22.663Z,22.10
2022-08-08T20:49:54.405Z,22.10
2022-08-08T20:52:29.450Z,22.00
2022-08-08T20:54:58.541Z,22.00
2022-08-08T20:57:27.924Z,21.80
2022-08-08T20:59:56.302Z,21.70
2022-08-08T21:02:27.370Z,21.50
2022-08-08T21:05:00.788Z,21.40
2022-08-08T21:08:33.381Z,21.30
2022-08-08T21:10:21.319Z,21.20
2022-08-08T21:12:56.260Z,21.00
2022-08-08T21:16:05.910Z,21.00
2022-08-08T21:18:12.794Z,20.90
2022-08-08T21:20:42.363Z,20.80
2022-08-08T21:23:17.880Z,20.70
2022-08-08T21:25:48.759Z,20.60
2022-08-08T21:28:33.563Z,20.50
2022-08-08T21:33:47.719Z,20.40
2022-08-08T21:36:20.391Z,20.30
2022-08-08T21:38:50.675Z,20.20
2022-08-08T21:41:38.414Z,20.20
2022-08-08T21:44:07.229Z,20.20
2022-08-08T21:48:05.275Z,20.20
2022-08-08T21:49:26.610Z,20.10
2022-08-08T21:54:32.000Z,20.20
2022-08-08T21:54:54.802Z,20.10
2022-08-08T21:57:42.204Z,20.10
2022-08-08T22:00:14.200Z,20.10
2022-08-08T22:02:43.063Z,20.00
2022-08-08T22:05:14.941Z,20.00
2022-08-08T22:07:48.897Z,19.90
2022-08-08T22:10:28.482Z,19.90
2022-08-08T22:13:17.441Z,19.80
2022-08-08T22:15:58.313Z,19.70
2022-08-08T22:18:32.991Z,19.70
2022-08-08T22:21:14.685Z,19.60
2022-08-08T22:23:50.705Z,19.60
2022-08-08T22:26:28.143Z,19.50
2022-08-08T22:29:13.667Z,19.40
2022-08-08T22:32:02.324Z,19.40
2022-08-08T22:34:39.922Z,19.40
2022-08-08T22:37:22.187Z,19.30
2022-08-08T22:40:11.802Z,19.30
2022-08-08T22:42:47.521Z,19.20
2022-08-08T22:45:16.376Z,19.10
2022-08-08T22:47:47.244Z,19.00
2022-08-08T22:50:25.832Z,18.90
2022-08-08T22:54:15.700Z,18.80
2022-08-08T22:55:58.589Z,18.80
2022-08-08T22:58:33.062Z,18.70
2022-08-08T23:01:02.290Z,18.80
2022-08-08T23:03:53.491Z,18.70
2022-08-08T23:06:27.960Z,18.70
2022-08-08T23:09:09.604Z,18.70
2022-08-08T23:12:28.339Z,18.60
2022-08-08T23:14:56.400Z,18.70
2022-08-08T23:17:53.997Z,18.50
2022-08-08T23:20:27.178Z,18.40
2022-08-08T23:22:56.747Z,18.40
2022-08-08T23:25:27.100Z,18.30
2022-08-08T23:27:56.295Z,18.20
2022-08-08T23:30:28.885Z,18.20
2022-08-08T23:32:57.434Z,18.10
2022-08-08T23:35:27.986Z,18.10
2022-08-08T23:38:03.892Z,18.10
2022-08-08T23:40:34.389Z,18.20
2022-08-08T23:43:04.609Z,18.10
2022-08-08T23:48:59.778Z,18.00
2022-08-08T23:49:01.801Z,18.00
2022-08-08T23:51:12.909Z,17.90
2022-08-08T23:54:39.069Z,17.80
2022-08-08T23:56:49.478Z,17.80
2022-08-08T23:59:19.500Z,17.60
